sensor_id;sensor_type;location;lat;lon;timestamp;P1;durP1;ratioP1;P2;durP2;ratioP2
10114;SDS011;5097;43.260;27.812;2023-07-22T00:00:21;17.85;;;15.23;;
10114;SDS011;5097;43.260;27.812;2023-07-22T00:03:05;21.80;;;16.20;;
10114;SDS011;5097;43.260;27.812;2023-07-22T00:05:59;18.40;;;16.30;;
10114;SDS011;5097;43.260;27.812;2023-07-22T00:08:47;17.48;;;14.95;;
10114;SDS011;5097;43.260;27.812;2023-07-22T00:11:31;22.40;;;15.73;;
10114;SDS011;5097;43.260;27.812;2023-07-22T00:14:16;35.65;;;17.38;;
10114;SDS011;5097;43.260;27.812;2023-07-22T00:17:00;24.20;;;16.20;;
10114;SDS011;5097;43.260;27.812;2023-07-22T00:19:44;26.17;;;15.73;;
10114;SDS011;5097;43.260;27.812;2023-07-22T00:22:28;26.67;;;17.30;;
10114;SDS011;5097;43.260;27.812;2023-07-22T00:25:14;29.13;;;18.15;;
10114;SDS011;5097;43.260;27.812;2023-07-22T00:27:58;19.10;;;16.08;;
10114;SDS011;5097;43.260;27.812;2023-07-22T00:30:42;18.48;;;15.85;;
10114;SDS011;5097;43.260;27.812;2023-07-22T00:33:26;19.63;;;15.38;;
10114;SDS011;5097;43.260;27.812;2023-07-22T00:36:11;16.38;;;14.20;;
10114;SDS011;5097;43.260;27.812;2023-07-22T00:38:55;17.85;;;14.60;;
10114;SDS011;5097;43.260;27.812;2023-07-22T00:41:41;18.67;;;13.68;;
10114;SDS011;5097;43.260;27.812;2023-07-22T00:44:27;16.90;;;13.52;;
10114;SDS011;5097;43.260;27.812;2023-07-22T00:47:11;17.05;;;14.15;;
10114;SDS011;5097;43.260;27.812;2023-07-22T00:49:55;15.20;;;13.70;;
10114;SDS011;5097;43.260;27.812;2023-07-22T00:52:40;16.15;;;13.40;;
10114;SDS011;5097;43.260;27.812;2023-07-22T00:55:24;16.20;;;13.75;;
10114;SDS011;5097;43.260;27.812;2023-07-22T00:58:10;17.02;;;13.18;;
10114;SDS011;5097;43.260;27.812;2023-07-22T01:00:54;15.35;;;12.85;;
10114;SDS011;5097;43.260;27.812;2023-07-22T01:03:38;15.10;;;13.23;;
10114;SDS011;5097;43.260;27.812;2023-07-22T01:06:23;14.13;;;12.73;;
10114;SDS011;5097;43.260;27.812;2023-07-22T01:09:08;14.38;;;12.88;;
10114;SDS011;5097;43.260;27.812;2023-07-22T01:11:52;16.33;;;12.13;;
10114;SDS011;5097;43.260;27.812;2023-07-22T01:14:38;14.27;;;12.80;;
10114;SDS011;5097;43.260;27.812;2023-07-22T01:17:24;16.80;;;13.45;;
10114;SDS011;5097;43.260;27.812;2023-07-22T01:20:11;17.30;;;12.80;;
10114;SDS011;5097;43.260;27.812;2023-07-22T01:22:58;13.60;;;12.30;;
10114;SDS011;5097;43.260;27.812;2023-07-22T01:25:42;14.45;;;13.02;;
10114;SDS011;5097;43.260;27.812;2023-07-22T01:28:26;15.60;;;12.68;;
10114;SDS011;5097;43.260;27.812;2023-07-22T01:31:11;17.50;;;13.38;;
10114;SDS011;5097;43.260;27.812;2023-07-22T01:33:55;13.82;;;12.23;;
10114;SDS011;5097;43.260;27.812;2023-07-22T01:36:41;19.85;;;12.63;;
10114;SDS011;5097;43.260;27.812;2023-07-22T01:39:26;14.75;;;13.20;;
10114;SDS011;5097;43.260;27.812;2023-07-22T01:42:11;19.17;;;14.45;;
10114;SDS011;5097;43.260;27.812;2023-07-22T01:44:55;17.20;;;14.65;;
10114;SDS011;5097;43.260;27.812;2023-07-22T01:47:39;19.25;;;15.13;;
10114;SDS011;5097;43.260;27.812;2023-07-22T01:50:33;17.02;;;13.75;;
10114;SDS011;5097;43.260;27.812;2023-07-22T01:53:17;18.13;;;13.90;;
10114;SDS011;5097;43.260;27.812;2023-07-22T01:56:03;16.65;;;14.68;;
10114;SDS011;5097;43.260;27.812;2023-07-22T01:58:48;20.17;;;15.93;;
10114;SDS011;5097;43.260;27.812;2023-07-22T02:01:32;19.55;;;16.38;;
10114;SDS011;5097;43.260;27.812;2023-07-22T02:04:17;18.48;;;16.70;;
10114;SDS011;5097;43.260;27.812;2023-07-22T02:07:01;24.10;;;17.98;;
10114;SDS011;5097;43.260;27.812;2023-07-22T02:09:45;20.45;;;18.33;;
10114;SDS011;5097;43.260;27.812;2023-07-22T02:12:31;23.45;;;18.05;;
10114;SDS011;5097;43.260;27.812;2023-07-22T02:15:22;18.30;;;16.27;;
10114;SDS011;5097;43.260;27.812;2023-07-22T02:18:07;19.23;;;17.20;;
10114;SDS011;5097;43.260;27.812;2023-07-22T02:20:51;19.80;;;18.00;;
10114;SDS011;5097;43.260;27.812;2023-07-22T02:23:35;19.55;;;17.52;;
10114;SDS011;5097;43.260;27.812;2023-07-22T02:26:19;18.95;;;16.95;;
10114;SDS011;5097;43.260;27.812;2023-07-22T02:29:04;19.33;;;17.40;;
10114;SDS011;5097;43.260;27.812;2023-07-22T02:31:49;20.02;;;17.15;;
10114;SDS011;5097;43.260;27.812;2023-07-22T02:34:33;17.95;;;16.15;;
10114;SDS011;5097;43.260;27.812;2023-07-22T02:37:17;19.63;;;17.58;;
10114;SDS011;5097;43.260;27.812;2023-07-22T02:40:01;18.02;;;16.10;;
10114;SDS011;5097;43.260;27.812;2023-07-22T02:42:51;18.05;;;15.98;;
10114;SDS011;5097;43.260;27.812;2023-07-22T02:45:36;19.25;;;16.65;;
10114;SDS011;5097;43.260;27.812;2023-07-22T02:48:21;18.27;;;16.35;;
10114;SDS011;5097;43.260;27.812;2023-07-22T02:51:05;19.63;;;16.20;;
10114;SDS011;5097;43.260;27.812;2023-07-22T02:53:55;18.67;;;16.75;;
10114;SDS011;5097;43.260;27.812;2023-07-22T02:56:39;20.48;;;15.73;;
10114;SDS011;5097;43.260;27.812;2023-07-22T02:59:23;16.88;;;15.23;;
10114;SDS011;5097;43.260;27.812;2023-07-22T03:02:09;17.25;;;15.45;;
10114;SDS011;5097;43.260;27.812;2023-07-22T03:04:56;19.23;;;16.60;;
10114;SDS011;5097;43.260;27.812;2023-07-22T03:07:40;18.48;;;15.98;;
10114;SDS011;5097;43.260;27.812;2023-07-22T03:10:24;16.17;;;14.73;;
10114;SDS011;5097;43.260;27.812;2023-07-22T03:13:11;17.55;;;15.75;;
10114;SDS011;5097;43.260;27.812;2023-07-22T03:15:56;16.35;;;14.65;;
10114;SDS011;5097;43.260;27.812;2023-07-22T03:18:42;16.90;;;14.77;;
10114;SDS011;5097;43.260;27.812;2023-07-22T03:21:27;16.30;;;14.77;;
10114;SDS011;5097;43.260;27.812;2023-07-22T03:24:11;15.45;;;13.85;;
10114;SDS011;5097;43.260;27.812;2023-07-22T03:26:55;15.45;;;14.05;;
10114;SDS011;5097;43.260;27.812;2023-07-22T03:29:40;15.95;;;14.32;;
10114;SDS011;5097;43.260;27.812;2023-07-22T03:32:24;16.55;;;14.90;;
10114;SDS011;5097;43.260;27.812;2023-07-22T03:35:10;17.42;;;15.00;;
10114;SDS011;5097;43.260;27.812;2023-07-22T03:37:55;15.95;;;14.35;;
10114;SDS011;5097;43.260;27.812;2023-07-22T03:40:39;18.17;;;14.93;;
10114;SDS011;5097;43.260;27.812;2023-07-22T03:43:24;17.27;;;13.68;;
10114;SDS011;5097;43.260;27.812;2023-07-22T03:46:08;14.85;;;13.38;;
10114;SDS011;5097;43.260;27.812;2023-07-22T03:48:52;18.88;;;13.07;;
10114;SDS011;5097;43.260;27.812;2023-07-22T03:51:38;14.25;;;11.98;;
10114;SDS011;5097;43.260;27.812;2023-07-22T03:54:22;14.60;;;13.02;;
10114;SDS011;5097;43.260;27.812;2023-07-22T03:57:06;13.68;;;11.93;;
10114;SDS011;5097;43.260;27.812;2023-07-22T03:59:50;13.57;;;11.93;;
10114;SDS011;5097;43.260;27.812;2023-07-22T04:02:34;16.90;;;11.95;;
10114;SDS011;5097;43.260;27.812;2023-07-22T04:05:18;14.55;;;11.23;;
10114;SDS011;5097;43.260;27.812;2023-07-22T04:08:04;12.93;;;11.73;;
10114;SDS011;5097;43.260;27.812;2023-07-22T04:10:52;12.77;;;11.48;;
10114;SDS011;5097;43.260;27.812;2023-07-22T04:13:36;13.20;;;11.45;;
10114;SDS011;5097;43.260;27.812;2023-07-22T04:16:21;11.95;;;10.77;;
10114;SDS011;5097;43.260;27.812;2023-07-22T04:19:05;11.50;;;10.38;;
10114;SDS011;5097;43.260;27.812;2023-07-22T04:21:49;15.73;;;10.82;;
10114;SDS011;5097;43.260;27.812;2023-07-22T04:24:35;14.30;;;10.68;;
10114;SDS011;5097;43.260;27.812;2023-07-22T04:27:19;12.13;;;10.82;;
10114;SDS011;5097;43.260;27.812;2023-07-22T04:30:04;13.27;;;9.85;;
10114;SDS011;5097;43.260;27.812;2023-07-22T04:32:49;13.07;;;10.30;;
10114;SDS011;5097;43.260;27.812;2023-07-22T04:35:36;11.43;;;10.13;;
10114;SDS011;5097;43.260;27.812;2023-07-22T04:38:21;10.93;;;9.82;;
10114;SDS011;5097;43.260;27.812;2023-07-22T04:41:07;12.10;;;10.57;;
10114;SDS011;5097;43.260;27.812;2023-07-22T04:43:51;10.45;;;9.40;;
10114;SDS011;5097;43.260;27.812;2023-07-22T04:46:35;14.70;;;9.57;;
10114;SDS011;5097;43.260;27.812;2023-07-22T04:49:19;10.63;;;9.45;;
10114;SDS011;5097;43.260;27.812;2023-07-22T04:52:04;10.48;;;9.43;;
10114;SDS011;5097;43.260;27.812;2023-07-22T04:54:49;12.30;;;8.73;;
10114;SDS011;5097;43.260;27.812;2023-07-22T04:57:35;13.50;;;8.52;;
10114;SDS011;5097;43.260;27.812;2023-07-22T05:00:19;9.20;;;8.25;;
10114;SDS011;5097;43.260;27.812;2023-07-22T05:03:06;10.52;;;9.35;;
10114;SDS011;5097;43.260;27.812;2023-07-22T05:05:50;12.23;;;8.27;;
10114;SDS011;5097;43.260;27.812;2023-07-22T05:08:35;9.32;;;7.82;;
10114;SDS011;5097;43.260;27.812;2023-07-22T05:11:20;11.40;;;8.13;;
10114;SDS011;5097;43.260;27.812;2023-07-22T05:14:07;11.52;;;7.85;;
10114;SDS011;5097;43.260;27.812;2023-07-22T05:16:51;17.13;;;8.13;;
10114;SDS011;5097;43.260;27.812;2023-07-22T05:19:35;11.90;;;7.70;;
10114;SDS011;5097;43.260;27.812;2023-07-22T05:22:19;10.98;;;8.15;;
10114;SDS011;5097;43.260;27.812;2023-07-22T05:25:03;12.38;;;8.25;;
10114;SDS011;5097;43.260;27.812;2023-07-22T05:27:49;8.65;;;7.72;;
10114;SDS011;5097;43.260;27.812;2023-07-22T05:30:34;12.10;;;7.57;;
10114;SDS011;5097;43.260;27.812;2023-07-22T05:33:18;12.75;;;7.80;;
10114;SDS011;5097;43.260;27.812;2023-07-22T05:36:03;15.13;;;8.02;;
10114;SDS011;5097;43.260;27.812;2023-07-22T05:39:08;9.20;;;7.53;;
10114;SDS011;5097;43.260;27.812;2023-07-22T05:41:52;26.27;;;9.10;;
10114;SDS011;5097;43.260;27.812;2023-07-22T05:44:36;16.63;;;8.05;;
10114;SDS011;5097;43.260;27.812;2023-07-22T05:47:20;8.98;;;7.13;;
10114;SDS011;5097;43.260;27.812;2023-07-22T05:50:04;8.10;;;6.95;;
10114;SDS011;5097;43.260;27.812;2023-07-22T05:52:49;10.32;;;7.53;;
10114;SDS011;5097;43.260;27.812;2023-07-22T05:55:34;9.27;;;6.93;;
10114;SDS011;5097;43.260;27.812;2023-07-22T05:58:18;7.63;;;6.57;;
10114;SDS011;5097;43.260;27.812;2023-07-22T06:01:02;6.45;;;5.88;;
10114;SDS011;5097;43.260;27.812;2023-07-22T06:03:46;7.65;;;6.13;;
10114;SDS011;5097;43.260;27.812;2023-07-22T06:06:30;8.40;;;6.10;;
10114;SDS011;5097;43.260;27.812;2023-07-22T06:09:14;8.35;;;7.03;;
10114;SDS011;5097;43.260;27.812;2023-07-22T06:12:00;6.85;;;6.03;;
10114;SDS011;5097;43.260;27.812;2023-07-22T06:14:44;8.95;;;6.32;;
10114;SDS011;5097;43.260;27.812;2023-07-22T06:17:28;6.68;;;5.90;;
10114;SDS011;5097;43.260;27.812;2023-07-22T06:20:12;6.57;;;5.97;;
10114;SDS011;5097;43.260;27.812;2023-07-22T06:22:56;7.07;;;5.68;;
10114;SDS011;5097;43.260;27.812;2023-07-22T06:25:40;8.38;;;6.32;;
10114;SDS011;5097;43.260;27.812;2023-07-22T06:28:25;7.30;;;5.53;;
10114;SDS011;5097;43.260;27.812;2023-07-22T06:31:09;6.50;;;5.82;;
10114;SDS011;5097;43.260;27.812;2023-07-22T06:33:54;13.85;;;7.10;;
10114;SDS011;5097;43.260;27.812;2023-07-22T06:36:38;6.22;;;5.72;;
10114;SDS011;5097;43.260;27.812;2023-07-22T06:39:22;8.23;;;5.82;;
10114;SDS011;5097;43.260;27.812;2023-07-22T06:42:06;6.13;;;5.53;;
10114;SDS011;5097;43.260;27.812;2023-07-22T06:44:52;6.13;;;5.43;;
10114;SDS011;5097;43.260;27.812;2023-07-22T06:47:36;8.25;;;5.32;;
10114;SDS011;5097;43.260;27.812;2023-07-22T06:50:20;7.35;;;5.03;;
10114;SDS011;5097;43.260;27.812;2023-07-22T06:53:05;6.90;;;5.85;;
10114;SDS011;5097;43.260;27.812;2023-07-22T06:55:49;7.85;;;5.70;;
10114;SDS011;5097;43.260;27.812;2023-07-22T06:58:33;5.68;;;5.18;;
10114;SDS011;5097;43.260;27.812;2023-07-22T07:01:19;5.28;;;4.88;;
10114;SDS011;5097;43.260;27.812;2023-07-22T07:04:03;7.45;;;5.05;;
10114;SDS011;5097;43.260;27.812;2023-07-22T07:06:48;6.47;;;5.32;;
10114;SDS011;5097;43.260;27.812;2023-07-22T07:09:32;13.43;;;5.53;;
10114;SDS011;5097;43.260;27.812;2023-07-22T07:12:16;7.70;;;4.80;;
10114;SDS011;5097;43.260;27.812;2023-07-22T07:15:00;5.15;;;4.65;;
10114;SDS011;5097;43.260;27.812;2023-07-22T07:17:50;6.05;;;4.80;;
10114;SDS011;5097;43.260;27.812;2023-07-22T07:20:34;7.53;;;4.78;;
10114;SDS011;5097;43.260;27.812;2023-07-22T07:23:18;6.60;;;4.95;;
10114;SDS011;5097;43.260;27.812;2023-07-22T07:26:02;6.40;;;5.20;;
10114;SDS011;5097;43.260;27.812;2023-07-22T07:28:47;6.55;;;5.00;;
10114;SDS011;5097;43.260;27.812;2023-07-22T07:31:32;10.43;;;5.00;;
10114;SDS011;5097;43.260;27.812;2023-07-22T07:34:17;6.45;;;4.88;;
10114;SDS011;5097;43.260;27.812;2023-07-22T07:37:01;7.35;;;5.45;;
10114;SDS011;5097;43.260;27.812;2023-07-22T07:39:45;6.50;;;4.88;;
10114;SDS011;5097;43.260;27.812;2023-07-22T07:42:30;8.45;;;5.78;;
10114;SDS011;5097;43.260;27.812;2023-07-22T07:45:14;6.22;;;5.50;;
10114;SDS011;5097;43.260;27.812;2023-07-22T07:47:58;7.43;;;4.70;;
10114;SDS011;5097;43.260;27.812;2023-07-22T07:50:44;5.78;;;4.65;;
10114;SDS011;5097;43.260;27.812;2023-07-22T07:53:28;6.35;;;4.40;;
10114;SDS011;5097;43.260;27.812;2023-07-22T07:56:12;9.18;;;4.70;;
10114;SDS011;5097;43.260;27.812;2023-07-22T07:58:58;8.45;;;4.95;;
10114;SDS011;5097;43.260;27.812;2023-07-22T08:01:42;5.10;;;4.60;;
10114;SDS011;5097;43.260;27.812;2023-07-22T08:04:26;5.22;;;4.82;;
10114;SDS011;5097;43.260;27.812;2023-07-22T08:07:14;8.85;;;5.50;;
10114;SDS011;5097;43.260;27.812;2023-07-22T08:09:59;5.57;;;4.97;;
10114;SDS011;5097;43.260;27.812;2023-07-22T08:12:46;6.68;;;5.22;;
10114;SDS011;5097;43.260;27.812;2023-07-22T08:15:30;10.73;;;5.93;;
10114;SDS011;5097;43.260;27.812;2023-07-22T08:18:14;7.00;;;5.00;;
10114;SDS011;5097;43.260;27.812;2023-07-22T08:20:59;9.43;;;5.18;;
10114;SDS011;5097;43.260;27.812;2023-07-22T08:23:45;6.45;;;5.47;;
10114;SDS011;5097;43.260;27.812;2023-07-22T08:26:30;12.32;;;4.93;;
10114;SDS011;5097;43.260;27.812;2023-07-22T08:29:14;5.18;;;4.78;;
10114;SDS011;5097;43.260;27.812;2023-07-22T08:31:58;5.90;;;5.10;;
10114;SDS011;5097;43.260;27.812;2023-07-22T08:34:42;6.53;;;5.15;;
10114;SDS011;5097;43.260;27.812;2023-07-22T08:37:26;7.57;;;4.80;;
10114;SDS011;5097;43.260;27.812;2023-07-22T08:40:11;12.00;;;5.60;;
10114;SDS011;5097;43.260;27.812;2023-07-22T08:42:56;7.68;;;5.53;;
10114;SDS011;5097;43.260;27.812;2023-07-22T08:45:40;8.85;;;5.60;;
10114;SDS011;5097;43.260;27.812;2023-07-22T08:48:26;9.68;;;5.55;;
10114;SDS011;5097;43.260;27.812;2023-07-22T08:51:15;6.75;;;5.65;;
10114;SDS011;5097;43.260;27.812;2023-07-22T08:54:01;6.45;;;5.40;;
10114;SDS011;5097;43.260;27.812;2023-07-22T08:56:54;6.43;;;5.68;;
10114;SDS011;5097;43.260;27.812;2023-07-22T08:59:38;5.90;;;5.38;;
10114;SDS011;5097;43.260;27.812;2023-07-22T09:02:23;8.93;;;5.30;;
10114;SDS011;5097;43.260;27.812;2023-07-22T09:05:08;6.80;;;5.18;;
10114;SDS011;5097;43.260;27.812;2023-07-22T09:07:52;7.63;;;5.40;;
10114;SDS011;5097;43.260;27.812;2023-07-22T09:10:37;6.72;;;5.97;;
10114;SDS011;5097;43.260;27.812;2023-07-22T09:13:23;7.15;;;5.30;;
10114;SDS011;5097;43.260;27.812;2023-07-22T09:16:10;6.00;;;5.32;;
10114;SDS011;5097;43.260;27.812;2023-07-22T09:18:55;6.57;;;4.85;;
10114;SDS011;5097;43.260;27.812;2023-07-22T09:21:41;6.25;;;5.30;;
10114;SDS011;5097;43.260;27.812;2023-07-22T09:24:25;8.43;;;5.25;;
10114;SDS011;5097;43.260;27.812;2023-07-22T09:27:11;9.65;;;7.65;;
10114;SDS011;5097;43.260;27.812;2023-07-22T09:29:57;11.57;;;7.80;;
10114;SDS011;5097;43.260;27.812;2023-07-22T09:32:41;8.75;;;5.28;;
10114;SDS011;5097;43.260;27.812;2023-07-22T09:35:26;9.68;;;6.15;;
10114;SDS011;5097;43.260;27.812;2023-07-22T09:38:12;9.05;;;6.07;;
10114;SDS011;5097;43.260;27.812;2023-07-22T09:40:57;11.13;;;5.32;;
10114;SDS011;5097;43.260;27.812;2023-07-22T09:43:41;8.25;;;6.32;;
10114;SDS011;5097;43.260;27.812;2023-07-22T09:46:34;10.43;;;5.15;;
10114;SDS011;5097;43.260;27.812;2023-07-22T09:49:19;5.95;;;5.35;;
10114;SDS011;5097;43.260;27.812;2023-07-22T09:52:06;8.55;;;5.35;;
10114;SDS011;5097;43.260;27.812;2023-07-22T09:54:54;9.63;;;5.72;;
10114;SDS011;5097;43.260;27.812;2023-07-22T09:57:40;5.88;;;5.28;;
10114;SDS011;5097;43.260;27.812;2023-07-22T10:00:28;9.23;;;5.05;;
10114;SDS011;5097;43.260;27.812;2023-07-22T10:03:14;9.05;;;5.18;;
10114;SDS011;5097;43.260;27.812;2023-07-22T10:06:02;6.03;;;5.10;;
10114;SDS011;5097;43.260;27.812;2023-07-22T10:08:49;10.93;;;5.90;;
10114;SDS011;5097;43.260;27.812;2023-07-22T10:11:33;9.15;;;4.68;;
10114;SDS011;5097;43.260;27.812;2023-07-22T10:14:18;6.47;;;4.93;;
10114;SDS011;5097;43.260;27.812;2023-07-22T10:17:03;6.57;;;5.43;;
10114;SDS011;5097;43.260;27.812;2023-07-22T10:19:50;7.25;;;5.25;;
10114;SDS011;5097;43.260;27.812;2023-07-22T10:22:36;8.68;;;5.63;;
10114;SDS011;5097;43.260;27.812;2023-07-22T10:25:21;8.13;;;4.72;;
10114;SDS011;5097;43.260;27.812;2023-07-22T10:28:05;5.60;;;4.90;;
10114;SDS011;5097;43.260;27.812;2023-07-22T10:30:51;9.38;;;5.20;;
10114;SDS011;5097;43.260;27.812;2023-07-22T10:33:36;8.32;;;4.82;;
10114;SDS011;5097;43.260;27.812;2023-07-22T10:36:22;7.45;;;5.32;;
10114;SDS011;5097;43.260;27.812;2023-07-22T10:39:17;6.63;;;5.50;;
10114;SDS011;5097;43.260;27.812;2023-07-22T10:42:09;9.50;;;5.70;;
10114;SDS011;5097;43.260;27.812;2023-07-22T10:45:18;7.15;;;4.82;;
10114;SDS011;5097;43.260;27.812;2023-07-22T10:48:07;9.40;;;5.18;;
10114;SDS011;5097;43.260;27.812;2023-07-22T10:50:53;5.38;;;4.82;;
10114;SDS011;5097;43.260;27.812;2023-07-22T10:53:42;6.72;;;5.10;;
10114;SDS011;5097;43.260;27.812;2023-07-22T10:56:28;9.55;;;4.78;;
10114;SDS011;5097;43.260;27.812;2023-07-22T10:59:12;8.52;;;5.28;;
10114;SDS011;5097;43.260;27.812;2023-07-22T11:01:56;7.60;;;5.40;;
10114;SDS011;5097;43.260;27.812;2023-07-22T11:04:40;7.65;;;5.40;;
10114;SDS011;5097;43.260;27.812;2023-07-22T11:07:41;6.63;;;4.95;;
10114;SDS011;5097;43.260;27.812;2023-07-22T11:10:30;7.28;;;4.70;;
10114;SDS011;5097;43.260;27.812;2023-07-22T11:13:14;6.78;;;5.20;;
10114;SDS011;5097;43.260;27.812;2023-07-22T11:15:58;13.10;;;4.80;;
10114;SDS011;5097;43.260;27.812;2023-07-22T11:18:42;11.48;;;4.80;;
10114;SDS011;5097;43.260;27.812;2023-07-22T11:21:27;8.15;;;5.28;;
10114;SDS011;5097;43.260;27.812;2023-07-22T11:24:11;7.10;;;5.22;;
10114;SDS011;5097;43.260;27.812;2023-07-22T11:26:56;7.47;;;5.35;;
10114;SDS011;5097;43.260;27.812;2023-07-22T11:29:41;9.02;;;5.38;;
10114;SDS011;5097;43.260;27.812;2023-07-22T11:32:25;7.65;;;5.30;;
10114;SDS011;5097;43.260;27.812;2023-07-22T11:35:09;10.30;;;5.50;;
10114;SDS011;5097;43.260;27.812;2023-07-22T11:38:00;7.13;;;5.60;;
10114;SDS011;5097;43.260;27.812;2023-07-22T11:40:45;8.90;;;5.28;;
10114;SDS011;5097;43.260;27.812;2023-07-22T11:43:31;9.10;;;4.80;;
10114;SDS011;5097;43.260;27.812;2023-07-22T11:46:15;7.07;;;5.45;;
10114;SDS011;5097;43.260;27.812;2023-07-22T11:48:59;6.90;;;4.93;;
10114;SDS011;5097;43.260;27.812;2023-07-22T11:51:45;7.75;;;5.00;;
10114;SDS011;5097;43.260;27.812;2023-07-22T11:54:29;8.02;;;4.97;;
10114;SDS011;5097;43.260;27.812;2023-07-22T11:57:15;6.35;;;4.50;;
10114;SDS011;5097;43.260;27.812;2023-07-22T12:00:01;6.43;;;5.22;;
10114;SDS011;5097;43.260;27.812;2023-07-22T12:02:47;9.00;;;4.50;;
10114;SDS011;5097;43.260;27.812;2023-07-22T12:05:31;9.35;;;5.05;;
10114;SDS011;5097;43.260;27.812;2023-07-22T12:08:19;7.97;;;4.82;;
10114;SDS011;5097;43.260;27.812;2023-07-22T12:11:03;6.55;;;4.75;;
10114;SDS011;5097;43.260;27.812;2023-07-22T12:13:47;5.75;;;5.15;;
10114;SDS011;5097;43.260;27.812;2023-07-22T12:16:35;6.80;;;5.03;;
10114;SDS011;5097;43.260;27.812;2023-07-22T12:19:20;9.25;;;4.57;;
10114;SDS011;5097;43.260;27.812;2023-07-22T12:22:04;6.68;;;4.78;;
10114;SDS011;5097;43.260;27.812;2023-07-22T12:24:48;5.57;;;4.95;;
10114;SDS011;5097;43.260;27.812;2023-07-22T12:27:32;8.57;;;4.93;;
10114;SDS011;5097;43.260;27.812;2023-07-22T12:30:16;6.22;;;4.43;;
10114;SDS011;5097;43.260;27.812;2023-07-22T12:33:03;7.18;;;4.85;;
10114;SDS011;5097;43.260;27.812;2023-07-22T12:35:47;6.68;;;5.28;;
10114;SDS011;5097;43.260;27.812;2023-07-22T12:38:31;6.72;;;4.75;;
10114;SDS011;5097;43.260;27.812;2023-07-22T12:41:16;5.70;;;4.80;;
10114;SDS011;5097;43.260;27.812;2023-07-22T12:44:00;6.50;;;4.93;;
10114;SDS011;5097;43.260;27.812;2023-07-22T12:46:44;6.30;;;4.90;;
10114;SDS011;5097;43.260;27.812;2023-07-22T12:49:29;8.13;;;5.43;;
10114;SDS011;5097;43.260;27.812;2023-07-22T12:52:13;6.18;;;5.45;;
10114;SDS011;5097;43.260;27.812;2023-07-22T12:54:58;6.80;;;5.57;;
10114;SDS011;5097;43.260;27.812;2023-07-22T12:57:42;6.90;;;5.22;;
10114;SDS011;5097;43.260;27.812;2023-07-22T13:00:27;7.00;;;5.22;;
10114;SDS011;5097;43.260;27.812;2023-07-22T13:03:11;8.07;;;5.13;;
10114;SDS011;5097;43.260;27.812;2023-07-22T13:05:57;9.32;;;5.60;;
10114;SDS011;5097;43.260;27.812;2023-07-22T13:08:41;6.45;;;4.57;;
10114;SDS011;5097;43.260;27.812;2023-07-22T13:11:25;6.22;;;5.38;;
10114;SDS011;5097;43.260;27.812;2023-07-22T13:14:10;9.15;;;4.57;;
10114;SDS011;5097;43.260;27.812;2023-07-22T13:16:54;8.30;;;5.60;;
10114;SDS011;5097;43.260;27.812;2023-07-22T13:19:38;10.32;;;4.90;;
10114;SDS011;5097;43.260;27.812;2023-07-22T13:22:23;10.15;;;5.47;;
10114;SDS011;5097;43.260;27.812;2023-07-22T13:25:08;8.15;;;5.32;;
10114;SDS011;5097;43.260;27.812;2023-07-22T13:27:52;6.82;;;5.60;;
10114;SDS011;5097;43.260;27.812;2023-07-22T13:30:37;6.55;;;5.07;;
10114;SDS011;5097;43.260;27.812;2023-07-22T13:33:21;6.63;;;5.28;;
10114;SDS011;5097;43.260;27.812;2023-07-22T13:36:05;11.88;;;6.28;;
10114;SDS011;5097;43.260;27.812;2023-07-22T13:38:52;10.43;;;5.30;;
10114;SDS011;5097;43.260;27.812;2023-07-22T13:41:36;6.32;;;5.43;;
10114;SDS011;5097;43.260;27.812;2023-07-22T13:44:21;9.70;;;4.90;;
10114;SDS011;5097;43.260;27.812;2023-07-22T13:47:05;6.07;;;4.68;;
10114;SDS011;5097;43.260;27.812;2023-07-22T13:49:49;7.78;;;5.55;;
10114;SDS011;5097;43.260;27.812;2023-07-22T13:52:33;7.93;;;5.05;;
10114;SDS011;5097;43.260;27.812;2023-07-22T13:55:19;6.25;;;5.18;;
10114;SDS011;5097;43.260;27.812;2023-07-22T13:58:03;7.68;;;4.30;;
10114;SDS011;5097;43.260;27.812;2023-07-22T14:00:47;7.60;;;4.95;;
10114;SDS011;5097;43.260;27.812;2023-07-22T14:03:31;8.13;;;5.03;;
10114;SDS011;5097;43.260;27.812;2023-07-22T14:06:16;6.15;;;4.47;;
10114;SDS011;5097;43.260;27.812;2023-07-22T14:09:00;9.38;;;5.20;;
10114;SDS011;5097;43.260;27.812;2023-07-22T14:11:46;9.02;;;4.68;;
10114;SDS011;5097;43.260;27.812;2023-07-22T14:14:30;6.18;;;4.60;;
10114;SDS011;5097;43.260;27.812;2023-07-22T14:17:14;6.47;;;4.70;;
10114;SDS011;5097;43.260;27.812;2023-07-22T14:19:58;7.22;;;4.70;;
10114;SDS011;5097;43.260;27.812;2023-07-22T14:22:45;7.95;;;4.82;;
10114;SDS011;5097;43.260;27.812;2023-07-22T14:25:32;7.15;;;4.75;;
10114;SDS011;5097;43.260;27.812;2023-07-22T14:28:17;8.70;;;5.75;;
10114;SDS011;5097;43.260;27.812;2023-07-22T14:31:01;7.10;;;5.20;;
10114;SDS011;5097;43.260;27.812;2023-07-22T14:33:46;13.48;;;5.60;;
10114;SDS011;5097;43.260;27.812;2023-07-22T14:36:30;8.43;;;5.13;;
10114;SDS011;5097;43.260;27.812;2023-07-22T14:39:14;5.18;;;4.70;;
10114;SDS011;5097;43.260;27.812;2023-07-22T14:41:58;9.32;;;4.85;;
10114;SDS011;5097;43.260;27.812;2023-07-22T14:44:44;8.18;;;5.32;;
10114;SDS011;5097;43.260;27.812;2023-07-22T14:47:28;9.95;;;5.05;;
10114;SDS011;5097;43.260;27.812;2023-07-22T14:50:12;8.63;;;4.90;;
10114;SDS011;5097;43.260;27.812;2023-07-22T14:52:56;7.35;;;4.93;;
10114;SDS011;5097;43.260;27.812;2023-07-22T14:55:41;8.05;;;5.25;;
10114;SDS011;5097;43.260;27.812;2023-07-22T14:58:25;5.50;;;4.72;;
10114;SDS011;5097;43.260;27.812;2023-07-22T15:01:11;8.75;;;5.53;;
10114;SDS011;5097;43.260;27.812;2023-07-22T15:03:55;10.73;;;5.15;;
10114;SDS011;5097;43.260;27.812;2023-07-22T15:06:39;5.60;;;4.82;;
10114;SDS011;5097;43.260;27.812;2023-07-22T15:09:23;7.47;;;5.05;;
10114;SDS011;5097;43.260;27.812;2023-07-22T15:12:08;6.03;;;5.43;;
10114;SDS011;5097;43.260;27.812;2023-07-22T15:14:52;6.38;;;5.32;;
10114;SDS011;5097;43.260;27.812;2023-07-22T15:17:37;13.27;;;5.18;;
10114;SDS011;5097;43.260;27.812;2023-07-22T15:20:22;8.80;;;5.38;;
10114;SDS011;5097;43.260;27.812;2023-07-22T15:23:06;4.68;;;4.28;;
10114;SDS011;5097;43.260;27.812;2023-07-22T15:25:50;5.55;;;4.95;;
10114;SDS011;5097;43.260;27.812;2023-07-22T15:28:34;5.45;;;4.47;;
10114;SDS011;5097;43.260;27.812;2023-07-22T15:31:18;6.35;;;5.05;;
10114;SDS011;5097;43.260;27.812;2023-07-22T15:34:04;5.57;;;4.07;;
10114;SDS011;5097;43.260;27.812;2023-07-22T15:36:49;5.18;;;4.60;;
10114;SDS011;5097;43.260;27.812;2023-07-22T15:39:33;5.88;;;5.10;;
10114;SDS011;5097;43.260;27.812;2023-07-22T15:42:17;7.43;;;4.97;;
10114;SDS011;5097;43.260;27.812;2023-07-22T15:45:02;5.97;;;5.32;;
10114;SDS011;5097;43.260;27.812;2023-07-22T15:47:48;5.82;;;5.05;;
10114;SDS011;5097;43.260;27.812;2023-07-22T15:50:34;5.47;;;4.85;;
10114;SDS011;5097;43.260;27.812;2023-07-22T15:53:18;7.53;;;4.65;;
10114;SDS011;5097;43.260;27.812;2023-07-22T15:56:02;10.13;;;5.28;;
10114;SDS011;5097;43.260;27.812;2023-07-22T15:58:46;6.18;;;4.82;;
10114;SDS011;5097;43.260;27.812;2023-07-22T16:01:30;6.88;;;4.10;;
10114;SDS011;5097;43.260;27.812;2023-07-22T16:04:14;5.13;;;4.65;;
10114;SDS011;5097;43.260;27.812;2023-07-22T16:07:00;8.20;;;5.40;;
10114;SDS011;5097;43.260;27.812;2023-07-22T16:09:49;5.03;;;4.55;;
10114;SDS011;5097;43.260;27.812;2023-07-22T16:12:35;7.22;;;5.10;;
10114;SDS011;5097;43.260;27.812;2023-07-22T16:15:19;5.72;;;5.18;;
10114;SDS011;5097;43.260;27.812;2023-07-22T16:18:03;6.53;;;4.95;;
10114;SDS011;5097;43.260;27.812;2023-07-22T16:20:47;6.80;;;5.10;;
10114;SDS011;5097;43.260;27.812;2023-07-22T16:23:32;6.15;;;4.57;;